Isme — HBY3191 — position and weather

sailwx.info

Track history (hours):
 
Tides and Currents Weather Stations Pressure Air Temp Water Temp Dewpoint Dewpoint Depression Visibility Wind Speed Wind Dir Waves Ship Positions

Isme

Last reported at 2017-Sep-25 08:18 UTC. Time now 2017-Oct-23 04:31 UTC.
Position N 37°55' E 023°00'.
Warning: this ship's position is 27 days out of date.

Length 18 m.

Type: Sailing vessel. MMSI: 269209000.

Date/timePositionNaut miles runAvg speedWind from/ knotsBaromVisibWave heightAir tempDewpointWater temp
2017-Sep-25 08:18N 37°55' E 023°00'0 0.9
2017-Sep-25 08:00N 37°55' E 023°01'0 0.0
2017-Sep-25 07:24N 37°55' E 023°01'0 0.6
2017-Sep-25 07:00N 37°55' E 023°01'2 4.5
2017-Sep-25 06:31N 37°54' E 023°03'4 7.1
2017-Sep-25 06:00N 37°52' E 023°07'3 6.4
2017-Sep-25 05:31N 37°50' E 023°10'6 0.3
2017-Sep-24 10:15N 37°44' E 023°11'8 7.5
2017-Sep-24 09:07N 37°40' E 023°20'1 7.8
2017-Sep-24 09:00N 37°39' E 023°21'  
2017-Sep-22 02:00N 37°09' E 025°14'0 0.0
2017-Sep-22 01:30N 37°09' E 025°14'0 0.0
2017-Sep-22 01:00N 37°09' E 025°14'0 0.0
2017-Sep-22 00:30N 37°09' E 025°14'0 0.0
2017-Sep-22 00:00N 37°09' E 025°14'0 0.0
2017-Sep-21 23:30N 37°09' E 025°14'0 0.0
2017-Sep-21 23:00N 37°09' E 025°14'0 0.0
2017-Sep-21 22:30N 37°09' E 025°14'0 0.0
2017-Sep-21 22:00N 37°09' E 025°14'0 0.0
2017-Sep-21 21:30N 37°09' E 025°14'0 0.0
2017-Sep-21 20:57N 37°09' E 025°14'0 0.0
2017-Sep-21 20:30N 37°09' E 025°14'0 0.0
2017-Sep-21 20:00N 37°09' E 025°14'0 0.0
2017-Sep-21 19:30N 37°09' E 025°14'0 0.0
2017-Sep-21 18:57N 37°09' E 025°14'0 0.0
2017-Sep-21 18:27N 37°09' E 025°14'0 0.0
2017-Sep-21 17:57N 37°09' E 025°14'0 0.0
2017-Sep-21 17:30N 37°09' E 025°14'0 0.0
2017-Sep-21 17:00N 37°09' E 025°14'0 0.0
2017-Sep-21 16:30N 37°09' E 025°14'0 0.0
2017-Sep-21 16:00N 37°09' E 025°14'0 0.0
2017-Sep-21 15:30N 37°09' E 025°14'0 0.0
2017-Sep-21 15:00N 37°09' E 025°14'0 0.0
2017-Sep-21 14:30N 37°09' E 025°14'0 0.0
2017-Sep-21 14:00N 37°09' E 025°14'0 0.0
2017-Sep-21 13:30N 37°09' E 025°14'0 0.0
2017-Sep-21 13:00N 37°09' E 025°14'0 0.0
2017-Sep-21 12:30N 37°09' E 025°14'0 0.0
2017-Sep-21 12:00N 37°09' E 025°14'0 0.0
2017-Sep-21 11:30N 37°09' E 025°14'0 0.0
2017-Sep-21 10:48N 37°09' E 025°14'0 0.0
2017-Sep-21 10:30N 37°09' E 025°14'0 0.0
2017-Sep-21 10:00N 37°09' E 025°14'0 0.0
2017-Sep-21 09:30N 37°09' E 025°14'0 0.0
2017-Sep-21 09:00N 37°09' E 025°14'0 0.0
2017-Sep-21 08:30N 37°09' E 025°14'0 0.0
2017-Sep-21 08:01N 37°09' E 025°14'0 0.0
2017-Sep-21 07:30N 37°09' E 025°14'0 0.0
2017-Sep-21 06:45N 37°09' E 025°14'0 0.0
2017-Sep-21 06:27N 37°09' E 025°14'0 0.0
2017-Sep-21 06:00N 37°09' E 025°14'0 0.0
2017-Sep-21 05:27N 37°09' E 025°14'0 0.0
2017-Sep-21 05:00N 37°09' E 025°14'0 0.0
2017-Sep-21 04:31N 37°09' E 025°14'0 0.0
2017-Sep-21 04:00N 37°09' E 025°14'0 0.0
2017-Sep-21 03:30N 37°09' E 025°14'0 0.0
2017-Sep-21 03:00N 37°09' E 025°14'0 0.0
2017-Sep-21 02:30N 37°09' E 025°14'0 0.0
2017-Sep-21 02:00N 37°09' E 025°14'0 0.0
2017-Sep-21 01:30N 37°09' E 025°14'0 0.0
2017-Sep-21 01:00N 37°09' E 025°14'0 0.0
2017-Sep-21 00:30N 37°09' E 025°14'0 0.0
2017-Sep-20 23:54N 37°09' E 025°14'0 0.0
2017-Sep-20 23:30N 37°09' E 025°14'0 0.0
2017-Sep-20 23:00N 37°09' E 025°14'0 0.0
2017-Sep-20 22:27N 37°09' E 025°14'0 0.0
2017-Sep-20 21:57N 37°09' E 025°14'0 0.0
2017-Sep-20 21:30N 37°09' E 025°14'0 0.0
2017-Sep-20 21:00N 37°09' E 025°14'0 0.0
2017-Sep-20 20:30N 37°09' E 025°14'0 0.0
2017-Sep-20 20:00N 37°09' E 025°14'0 0.0
2017-Sep-20 19:27N 37°09' E 025°14'0 0.0
2017-Sep-20 18:54N 37°09' E 025°14'0 0.0
2017-Sep-20 18:30N 37°09' E 025°14'0 0.0
2017-Sep-20 18:00N 37°09' E 025°14'0 0.0
2017-Sep-20 17:24N 37°09' E 025°14'0 0.0
2017-Sep-20 16:48N 37°09' E 025°14'0 0.0
2017-Sep-20 16:30N 37°09' E 025°14'0 0.0
2017-Sep-20 16:00N 37°09' E 025°14'0 0.0
2017-Sep-20 15:30N 37°09' E 025°14'0 0.1
2017-Sep-20 13:57N 37°08' E 025°14'2 5.0
2017-Sep-20 13:28N 37°10' E 025°16'2 5.3
2017-Sep-20 13:00N 37°10' E 025°19'3 7.0
2017-Sep-20 12:30N 37°11' E 025°23'4 6.9
2017-Sep-20 12:00N 37°11' E 025°28'10 5.8
2017-Sep-20 10:21N 37°14' E 025°39'3 7.4
2017-Sep-20 10:00N 37°14' E 025°43'3 6.2
2017-Sep-20 09:30N 37°15' E 025°46'3 6.7
2017-Sep-20 09:00N 37°15' E 025°51'  
Track history (hours):
 
Tides and Currents Weather Stations Pressure Air Temp Water Temp Dewpoint Dewpoint Depression Visibility Wind Speed Wind Dir Waves Ship Positions

Isme

Last reported at 2017-Sep-25 08:18 UTC. Time now 2017-Oct-23 04:31 UTC.
Position N 37°55' E 023°00'.
Warning: this ship's position is 27 days out of date.

Length 18 m.

Type: Sailing vessel. MMSI: 269209000.

Date/timePositionNaut miles runAvg speedWind from/ knotsBaromVisibWave heightAir tempDewpointWater temp
2017-Sep-25 08:18N 37°55' E 023°00'0 0.9
2017-Sep-25 08:00N 37°55' E 023°01'0 0.0
2017-Sep-25 07:24N 37°55' E 023°01'0 0.6
2017-Sep-25 07:00N 37°55' E 023°01'2 4.5
2017-Sep-25 06:31N 37°54' E 023°03'4 7.1
2017-Sep-25 06:00N 37°52' E 023°07'3 6.4
2017-Sep-25 05:31N 37°50' E 023°10'6 0.3
2017-Sep-24 10:15N 37°44' E 023°11'8 7.5
2017-Sep-24 09:07N 37°40' E 023°20'1 7.8
2017-Sep-24 09:00N 37°39' E 023°21'  
2017-Sep-22 02:00N 37°09' E 025°14'0 0.0
2017-Sep-22 01:30N 37°09' E 025°14'0 0.0
2017-Sep-22 01:00N 37°09' E 025°14'0 0.0
2017-Sep-22 00:30N 37°09' E 025°14'0 0.0
2017-Sep-22 00:00N 37°09' E 025°14'0 0.0
2017-Sep-21 23:30N 37°09' E 025°14'0 0.0
2017-Sep-21 23:00N 37°09' E 025°14'0 0.0
2017-Sep-21 22:30N 37°09' E 025°14'0 0.0
2017-Sep-21 22:00N 37°09' E 025°14'0 0.0
2017-Sep-21 21:30N 37°09' E 025°14'0 0.0
2017-Sep-21 20:57N 37°09' E 025°14'0 0.0
2017-Sep-21 20:30N 37°09' E 025°14'0 0.0
2017-Sep-21 20:00N 37°09' E 025°14'0 0.0
2017-Sep-21 19:30N 37°09' E 025°14'0 0.0
2017-Sep-21 18:57N 37°09' E 025°14'0 0.0
2017-Sep-21 18:27N 37°09' E 025°14'0 0.0
2017-Sep-21 17:57N 37°09' E 025°14'0 0.0
2017-Sep-21 17:30N 37°09' E 025°14'0 0.0
2017-Sep-21 17:00N 37°09' E 025°14'0 0.0
2017-Sep-21 16:30N 37°09' E 025°14'0 0.0
2017-Sep-21 16:00N 37°09' E 025°14'0 0.0
2017-Sep-21 15:30N 37°09' E 025°14'0 0.0
2017-Sep-21 15:00N 37°09' E 025°14'0 0.0
2017-Sep-21 14:30N 37°09' E 025°14'0 0.0
2017-Sep-21 14:00N 37°09' E 025°14'0 0.0
2017-Sep-21 13:30N 37°09' E 025°14'0 0.0
2017-Sep-21 13:00N 37°09' E 025°14'0 0.0
2017-Sep-21 12:30N 37°09' E 025°14'0 0.0
2017-Sep-21 12:00N 37°09' E 025°14'0 0.0
2017-Sep-21 11:30N 37°09' E 025°14'0 0.0
2017-Sep-21 10:48N 37°09' E 025°14'0 0.0
2017-Sep-21 10:30N 37°09' E 025°14'0 0.0
2017-Sep-21 10:00N 37°09' E 025°14'0 0.0
2017-Sep-21 09:30N 37°09' E 025°14'0 0.0
2017-Sep-21 09:00N 37°09' E 025°14'0 0.0
2017-Sep-21 08:30N 37°09' E 025°14'0 0.0
2017-Sep-21 08:01N 37°09' E 025°14'0 0.0
2017-Sep-21 07:30N 37°09' E 025°14'0 0.0
2017-Sep-21 06:45N 37°09' E 025°14'0 0.0
2017-Sep-21 06:27N 37°09' E 025°14'0 0.0
2017-Sep-21 06:00N 37°09' E 025°14'0 0.0
2017-Sep-21 05:27N 37°09' E 025°14'0 0.0
2017-Sep-21 05:00N 37°09' E 025°14'0 0.0
2017-Sep-21 04:31N 37°09' E 025°14'0 0.0
2017-Sep-21 04:00N 37°09' E 025°14'0 0.0
2017-Sep-21 03:30N 37°09' E 025°14'0 0.0
2017-Sep-21 03:00N 37°09' E 025°14'0 0.0
2017-Sep-21 02:30N 37°09' E 025°14'0 0.0
2017-Sep-21 02:00N 37°09' E 025°14'0 0.0
2017-Sep-21 01:30N 37°09' E 025°14'0 0.0
2017-Sep-21 01:00N 37°09' E 025°14'0 0.0
2017-Sep-21 00:30N 37°09' E 025°14'0 0.0
2017-Sep-20 23:54N 37°09' E 025°14'0 0.0
2017-Sep-20 23:30N 37°09' E 025°14'0 0.0
2017-Sep-20 23:00N 37°09' E 025°14'0 0.0
2017-Sep-20 22:27N 37°09' E 025°14'0 0.0
2017-Sep-20 21:57N 37°09' E 025°14'0 0.0
2017-Sep-20 21:30N 37°09' E 025°14'0 0.0
2017-Sep-20 21:00N 37°09' E 025°14'0 0.0
2017-Sep-20 20:30N 37°09' E 025°14'0 0.0
2017-Sep-20 20:00N 37°09' E 025°14'0 0.0
2017-Sep-20 19:27N 37°09' E 025°14'0 0.0
2017-Sep-20 18:54N 37°09' E 025°14'0 0.0
2017-Sep-20 18:30N 37°09' E 025°14'0 0.0
2017-Sep-20 18:00N 37°09' E 025°14'0 0.0
2017-Sep-20 17:24N 37°09' E 025°14'0 0.0
2017-Sep-20 16:48N 37°09' E 025°14'0 0.0
2017-Sep-20 16:30N 37°09' E 025°14'0 0.0
2017-Sep-20 16:00N 37°09' E 025°14'0 0.0
2017-Sep-20 15:30N 37°09' E 025°14'0 0.1
2017-Sep-20 13:57N 37°08' E 025°14'2 5.0
2017-Sep-20 13:28N 37°10' E 025°16'2 5.3
2017-Sep-20 13:00N 37°10' E 025°19'3 7.0
2017-Sep-20 12:30N 37°11' E 025°23'4 6.9
2017-Sep-20 12:00N 37°11' E 025°28'10 5.8
2017-Sep-20 10:21N 37°14' E 025°39'3 7.4
2017-Sep-20 10:00N 37°14' E 025°43'3 6.2
2017-Sep-20 09:30N 37°15' E 025°46'3 6.7
2017-Sep-20 09:00N 37°15' E 025°51'  

Dump ship's entire track history